sensor_id;sensor_type;location;lat;lon;timestamp;P1;durP1;ratioP1;P2;durP2;ratioP2
68072;SDS011;54862;51.502;7.446;2023-10-31T00:02:09;1.13;;;1.13;;
68072;SDS011;54862;51.502;7.446;2023-10-31T00:04:35;1.58;;;1.33;;
68072;SDS011;54862;51.502;7.446;2023-10-31T00:07:01;1.30;;;1.20;;
68072;SDS011;54862;51.502;7.446;2023-10-31T00:09:27;1.95;;;1.45;;
68072;SDS011;54862;51.502;7.446;2023-10-31T00:11:53;1.63;;;1.30;;
68072;SDS011;54862;51.502;7.446;2023-10-31T00:14:19;1.67;;;1.33;;
68072;SDS011;54862;51.502;7.446;2023-10-31T00:16:44;1.92;;;1.67;;
68072;SDS011;54862;51.502;7.446;2023-10-31T00:19:10;2.30;;;1.85;;
68072;SDS011;54862;51.502;7.446;2023-10-31T00:21:36;1.58;;;1.40;;
68072;SDS011;54862;51.502;7.446;2023-10-31T00:24:05;1.33;;;1.23;;
68072;SDS011;54862;51.502;7.446;2023-10-31T00:26:33;1.48;;;1.38;;
68072;SDS011;54862;51.502;7.446;2023-10-31T00:29:01;3.05;;;2.10;;
68072;SDS011;54862;51.502;7.446;2023-10-31T00:31:27;1.80;;;1.40;;
68072;SDS011;54862;51.502;7.446;2023-10-31T00:33:53;1.60;;;1.50;;
68072;SDS011;54862;51.502;7.446;2023-10-31T00:36:22;1.95;;;1.75;;
68072;SDS011;54862;51.502;7.446;2023-10-31T00:38:51;2.10;;;1.52;;
68072;SDS011;54862;51.502;7.446;2023-10-31T00:41:17;2.03;;;1.52;;
68072;SDS011;54862;51.502;7.446;2023-10-31T00:43:45;1.35;;;1.23;;
68072;SDS011;54862;51.502;7.446;2023-10-31T00:46:11;1.50;;;1.40;;
68072;SDS011;54862;51.502;7.446;2023-10-31T00:48:37;1.52;;;1.30;;
68072;SDS011;54862;51.502;7.446;2023-10-31T00:51:03;1.50;;;1.40;;
68072;SDS011;54862;51.502;7.446;2023-10-31T00:53:30;3.60;;;2.00;;
68072;SDS011;54862;51.502;7.446;2023-10-31T00:55:56;1.38;;;1.27;;
68072;SDS011;54862;51.502;7.446;2023-10-31T00:58:24;1.50;;;1.40;;
68072;SDS011;54862;51.502;7.446;2023-10-31T01:00:50;2.92;;;1.98;;
68072;SDS011;54862;51.502;7.446;2023-10-31T01:03:16;1.40;;;1.30;;
68072;SDS011;54862;51.502;7.446;2023-10-31T01:05:42;1.25;;;1.20;;
68072;SDS011;54862;51.502;7.446;2023-10-31T01:08:08;1.58;;;1.15;;
68072;SDS011;54862;51.502;7.446;2023-10-31T01:10:34;1.27;;;1.25;;
68072;SDS011;54862;51.502;7.446;2023-10-31T01:13:00;1.15;;;1.15;;
68072;SDS011;54862;51.502;7.446;2023-10-31T01:15:26;1.00;;;1.00;;
68072;SDS011;54862;51.502;7.446;2023-10-31T01:17:52;1.17;;;1.15;;
68072;SDS011;54862;51.502;7.446;2023-10-31T01:20:18;4.57;;;1.50;;
68072;SDS011;54862;51.502;7.446;2023-10-31T01:22:44;1.23;;;1.23;;
68072;SDS011;54862;51.502;7.446;2023-10-31T01:25:10;1.10;;;1.10;;
68072;SDS011;54862;51.502;7.446;2023-10-31T01:27:36;1.20;;;1.20;;
68072;SDS011;54862;51.502;7.446;2023-10-31T01:30:02;1.05;;;1.05;;
68072;SDS011;54862;51.502;7.446;2023-10-31T01:32:28;1.30;;;1.20;;
68072;SDS011;54862;51.502;7.446;2023-10-31T01:34:54;1.00;;;1.00;;
68072;SDS011;54862;51.502;7.446;2023-10-31T01:37:23;1.50;;;1.40;;
68072;SDS011;54862;51.502;7.446;2023-10-31T01:39:49;2.45;;;1.15;;
68072;SDS011;54862;51.502;7.446;2023-10-31T01:42:15;1.10;;;1.10;;
68072;SDS011;54862;51.502;7.446;2023-10-31T01:44:43;1.25;;;1.15;;
68072;SDS011;54862;51.502;7.446;2023-10-31T01:47:09;1.45;;;1.42;;
68072;SDS011;54862;51.502;7.446;2023-10-31T01:49:35;1.08;;;1.05;;
68072;SDS011;54862;51.502;7.446;2023-10-31T01:52:04;1.23;;;1.13;;
68072;SDS011;54862;51.502;7.446;2023-10-31T01:54:31;1.73;;;1.60;;
68072;SDS011;54862;51.502;7.446;2023-10-31T01:56:58;2.65;;;1.50;;
68072;SDS011;54862;51.502;7.446;2023-10-31T01:59:27;0.95;;;0.95;;
68072;SDS011;54862;51.502;7.446;2023-10-31T02:01:54;1.85;;;1.75;;
68072;SDS011;54862;51.502;7.446;2023-10-31T02:04:23;0.90;;;0.90;;
68072;SDS011;54862;51.502;7.446;2023-10-31T02:06:49;1.85;;;1.67;;
68072;SDS011;54862;51.502;7.446;2023-10-31T02:09:18;1.42;;;1.25;;
68072;SDS011;54862;51.502;7.446;2023-10-31T02:11:44;1.20;;;1.20;;
68072;SDS011;54862;51.502;7.446;2023-10-31T02:14:10;1.20;;;1.17;;
68072;SDS011;54862;51.502;7.446;2023-10-31T02:16:36;1.95;;;1.40;;
68072;SDS011;54862;51.502;7.446;2023-10-31T02:19:04;1.25;;;1.23;;
68072;SDS011;54862;51.502;7.446;2023-10-31T02:21:30;1.90;;;1.73;;
68072;SDS011;54862;51.502;7.446;2023-10-31T02:24:03;1.30;;;1.20;;
68072;SDS011;54862;51.502;7.446;2023-10-31T02:26:33;4.67;;;2.07;;
68072;SDS011;54862;51.502;7.446;2023-10-31T02:28:59;1.63;;;1.33;;
68072;SDS011;54862;51.502;7.446;2023-10-31T02:31:28;3.63;;;1.70;;
68072;SDS011;54862;51.502;7.446;2023-10-31T02:33:54;3.47;;;1.83;;
68072;SDS011;54862;51.502;7.446;2023-10-31T02:36:20;1.88;;;1.65;;
68072;SDS011;54862;51.502;7.446;2023-10-31T02:38:46;3.58;;;2.10;;
68072;SDS011;54862;51.502;7.446;2023-10-31T02:41:12;2.60;;;1.80;;
68072;SDS011;54862;51.502;7.446;2023-10-31T02:43:39;1.80;;;1.55;;
68072;SDS011;54862;51.502;7.446;2023-10-31T02:46:05;1.52;;;1.42;;
68072;SDS011;54862;51.502;7.446;2023-10-31T02:48:31;2.40;;;1.75;;
68072;SDS011;54862;51.502;7.446;2023-10-31T02:51:06;1.52;;;1.42;;
68072;SDS011;54862;51.502;7.446;2023-10-31T02:53:32;1.25;;;1.25;;
68072;SDS011;54862;51.502;7.446;2023-10-31T02:55:58;1.60;;;1.50;;
68072;SDS011;54862;51.502;7.446;2023-10-31T02:58:24;1.48;;;1.38;;
68072;SDS011;54862;51.502;7.446;2023-10-31T03:00:50;1.10;;;1.10;;
68072;SDS011;54862;51.502;7.446;2023-10-31T03:03:16;1.73;;;1.63;;
68072;SDS011;54862;51.502;7.446;2023-10-31T03:05:42;1.33;;;1.27;;
68072;SDS011;54862;51.502;7.446;2023-10-31T03:08:10;1.55;;;1.42;;
68072;SDS011;54862;51.502;7.446;2023-10-31T03:10:41;1.50;;;1.40;;
68072;SDS011;54862;51.502;7.446;2023-10-31T03:13:09;1.20;;;1.10;;
68072;SDS011;54862;51.502;7.446;2023-10-31T03:15:38;1.33;;;1.23;;
68072;SDS011;54862;51.502;7.446;2023-10-31T03:18:04;1.15;;;1.15;;
68072;SDS011;54862;51.502;7.446;2023-10-31T03:20:30;1.17;;;1.17;;
68072;SDS011;54862;51.502;7.446;2023-10-31T03:22:56;1.33;;;1.23;;
68072;SDS011;54862;51.502;7.446;2023-10-31T03:25:22;1.38;;;1.30;;
68072;SDS011;54862;51.502;7.446;2023-10-31T03:27:48;1.83;;;1.73;;
68072;SDS011;54862;51.502;7.446;2023-10-31T03:30:14;1.75;;;1.65;;
68072;SDS011;54862;51.502;7.446;2023-10-31T03:32:40;1.50;;;1.40;;
68072;SDS011;54862;51.502;7.446;2023-10-31T03:35:06;1.48;;;1.38;;
68072;SDS011;54862;51.502;7.446;2023-10-31T03:37:32;1.52;;;1.33;;
68072;SDS011;54862;51.502;7.446;2023-10-31T03:39:58;1.52;;;1.20;;
68072;SDS011;54862;51.502;7.446;2023-10-31T03:42:24;1.10;;;1.10;;
68072;SDS011;54862;51.502;7.446;2023-10-31T03:44:50;3.08;;;2.13;;
68072;SDS011;54862;51.502;7.446;2023-10-31T03:47:21;2.70;;;2.00;;
68072;SDS011;54862;51.502;7.446;2023-10-31T03:49:49;3.10;;;1.40;;
68072;SDS011;54862;51.502;7.446;2023-10-31T03:52:15;2.78;;;1.38;;
68072;SDS011;54862;51.502;7.446;2023-10-31T03:54:41;1.95;;;1.40;;
68072;SDS011;54862;51.502;7.446;2023-10-31T03:57:09;2.83;;;1.88;;
68072;SDS011;54862;51.502;7.446;2023-10-31T03:59:36;2.67;;;1.80;;
68072;SDS011;54862;51.502;7.446;2023-10-31T04:02:02;3.83;;;2.45;;
68072;SDS011;54862;51.502;7.446;2023-10-31T04:04:28;2.47;;;1.90;;
68072;SDS011;54862;51.502;7.446;2023-10-31T04:06:54;2.58;;;1.90;;
68072;SDS011;54862;51.502;7.446;2023-10-31T04:09:23;2.13;;;1.50;;
68072;SDS011;54862;51.502;7.446;2023-10-31T04:11:53;2.47;;;2.03;;
68072;SDS011;54862;51.502;7.446;2023-10-31T04:14:19;3.95;;;1.58;;
68072;SDS011;54862;51.502;7.446;2023-10-31T04:16:45;6.78;;;1.75;;
68072;SDS011;54862;51.502;7.446;2023-10-31T04:19:12;2.85;;;2.00;;
68072;SDS011;54862;51.502;7.446;2023-10-31T04:21:40;1.70;;;1.38;;
68072;SDS011;54862;51.502;7.446;2023-10-31T04:24:06;2.08;;;1.63;;
68072;SDS011;54862;51.502;7.446;2023-10-31T04:26:32;3.13;;;1.75;;
68072;SDS011;54862;51.502;7.446;2023-10-31T04:29:03;2.78;;;1.88;;
68072;SDS011;54862;51.502;7.446;2023-10-31T04:31:29;1.30;;;1.30;;
68072;SDS011;54862;51.502;7.446;2023-10-31T04:33:57;1.63;;;1.52;;
68072;SDS011;54862;51.502;7.446;2023-10-31T04:36:23;3.03;;;1.83;;
68072;SDS011;54862;51.502;7.446;2023-10-31T04:38:49;1.90;;;1.73;;
68072;SDS011;54862;51.502;7.446;2023-10-31T04:41:15;2.63;;;1.90;;
68072;SDS011;54862;51.502;7.446;2023-10-31T04:43:44;2.03;;;1.60;;
68072;SDS011;54862;51.502;7.446;2023-10-31T04:46:10;1.25;;;1.25;;
68072;SDS011;54862;51.502;7.446;2023-10-31T04:48:36;2.88;;;1.75;;
68072;SDS011;54862;51.502;7.446;2023-10-31T04:51:02;1.40;;;1.35;;
68072;SDS011;54862;51.502;7.446;2023-10-31T04:53:28;4.82;;;2.45;;
68072;SDS011;54862;51.502;7.446;2023-10-31T04:55:54;3.47;;;1.92;;
68072;SDS011;54862;51.502;7.446;2023-10-31T04:58:22;1.45;;;1.35;;
68072;SDS011;54862;51.502;7.446;2023-10-31T05:00:48;2.17;;;1.40;;
68072;SDS011;54862;51.502;7.446;2023-10-31T05:03:14;2.80;;;1.67;;
68072;SDS011;54862;51.502;7.446;2023-10-31T05:05:42;1.73;;;1.50;;
68072;SDS011;54862;51.502;7.446;2023-10-31T05:08:08;1.40;;;1.30;;
68072;SDS011;54862;51.502;7.446;2023-10-31T05:10:37;1.95;;;1.30;;
68072;SDS011;54862;51.502;7.446;2023-10-31T05:13:03;1.23;;;1.23;;
68072;SDS011;54862;51.502;7.446;2023-10-31T05:15:31;1.17;;;1.13;;
68072;SDS011;54862;51.502;7.446;2023-10-31T05:17:57;2.13;;;1.38;;
68072;SDS011;54862;51.502;7.446;2023-10-31T05:20:23;3.85;;;1.80;;
68072;SDS011;54862;51.502;7.446;2023-10-31T05:22:49;2.25;;;1.58;;
68072;SDS011;54862;51.502;7.446;2023-10-31T05:25:17;1.55;;;1.40;;
68072;SDS011;54862;51.502;7.446;2023-10-31T05:27:43;2.95;;;1.63;;
68072;SDS011;54862;51.502;7.446;2023-10-31T05:30:11;2.45;;;1.45;;
68072;SDS011;54862;51.502;7.446;2023-10-31T05:32:38;1.35;;;1.23;;
68072;SDS011;54862;51.502;7.446;2023-10-31T05:35:04;2.38;;;1.60;;
68072;SDS011;54862;51.502;7.446;2023-10-31T05:37:30;1.52;;;1.40;;
68072;SDS011;54862;51.502;7.446;2023-10-31T05:39:56;1.70;;;1.58;;
68072;SDS011;54862;51.502;7.446;2023-10-31T05:42:22;2.67;;;1.15;;
68072;SDS011;54862;51.502;7.446;2023-10-31T05:44:49;1.42;;;1.33;;
68072;SDS011;54862;51.502;7.446;2023-10-31T05:47:15;3.60;;;2.20;;
68072;SDS011;54862;51.502;7.446;2023-10-31T05:49:42;2.08;;;1.88;;
68072;SDS011;54862;51.502;7.446;2023-10-31T05:52:08;2.25;;;1.88;;
68072;SDS011;54862;51.502;7.446;2023-10-31T05:54:34;1.38;;;1.27;;
68072;SDS011;54862;51.502;7.446;2023-10-31T05:57:02;1.60;;;1.50;;
68072;SDS011;54862;51.502;7.446;2023-10-31T05:59:28;2.95;;;1.88;;
68072;SDS011;54862;51.502;7.446;2023-10-31T06:01:54;1.00;;;1.00;;
68072;SDS011;54862;51.502;7.446;2023-10-31T06:04:22;1.25;;;1.23;;
68072;SDS011;54862;51.502;7.446;2023-10-31T06:06:50;1.83;;;1.73;;
68072;SDS011;54862;51.502;7.446;2023-10-31T06:09:18;1.30;;;1.20;;
68072;SDS011;54862;51.502;7.446;2023-10-31T06:11:46;2.60;;;1.38;;
68072;SDS011;54862;51.502;7.446;2023-10-31T06:14:15;2.75;;;1.70;;
68072;SDS011;54862;51.502;7.446;2023-10-31T06:16:41;1.92;;;1.75;;
68072;SDS011;54862;51.502;7.446;2023-10-31T06:19:07;3.05;;;1.80;;
68072;SDS011;54862;51.502;7.446;2023-10-31T06:21:33;3.67;;;2.22;;
68072;SDS011;54862;51.502;7.446;2023-10-31T06:23:59;2.35;;;1.65;;
68072;SDS011;54862;51.502;7.446;2023-10-31T06:26:28;3.22;;;1.77;;
68072;SDS011;54862;51.502;7.446;2023-10-31T06:28:54;1.80;;;1.70;;
68072;SDS011;54862;51.502;7.446;2023-10-31T06:31:20;5.03;;;2.38;;
68072;SDS011;54862;51.502;7.446;2023-10-31T06:33:46;5.18;;;2.55;;
68072;SDS011;54862;51.502;7.446;2023-10-31T06:36:12;5.03;;;2.70;;
68072;SDS011;54862;51.502;7.446;2023-10-31T06:38:40;3.13;;;2.28;;
68072;SDS011;54862;51.502;7.446;2023-10-31T06:41:06;5.00;;;2.63;;
68072;SDS011;54862;51.502;7.446;2023-10-31T06:43:35;4.68;;;3.42;;
68072;SDS011;54862;51.502;7.446;2023-10-31T06:46:01;3.65;;;2.08;;
68072;SDS011;54862;51.502;7.446;2023-10-31T06:48:29;2.60;;;2.05;;
68072;SDS011;54862;51.502;7.446;2023-10-31T06:50:55;3.30;;;2.15;;
68072;SDS011;54862;51.502;7.446;2023-10-31T06:53:21;7.43;;;2.97;;
68072;SDS011;54862;51.502;7.446;2023-10-31T06:55:47;3.90;;;2.55;;
68072;SDS011;54862;51.502;7.446;2023-10-31T06:58:13;4.60;;;2.42;;
68072;SDS011;54862;51.502;7.446;2023-10-31T07:00:39;4.63;;;2.67;;
68072;SDS011;54862;51.502;7.446;2023-10-31T07:03:07;4.93;;;2.55;;
68072;SDS011;54862;51.502;7.446;2023-10-31T07:05:37;6.68;;;3.58;;
68072;SDS011;54862;51.502;7.446;2023-10-31T07:08:05;3.72;;;2.40;;
68072;SDS011;54862;51.502;7.446;2023-10-31T07:10:31;8.85;;;2.40;;
68072;SDS011;54862;51.502;7.446;2023-10-31T07:12:58;5.45;;;2.97;;
68072;SDS011;54862;51.502;7.446;2023-10-31T07:15:26;7.78;;;2.67;;
68072;SDS011;54862;51.502;7.446;2023-10-31T07:17:52;6.70;;;2.97;;
68072;SDS011;54862;51.502;7.446;2023-10-31T07:20:21;4.75;;;2.42;;
68072;SDS011;54862;51.502;7.446;2023-10-31T07:22:47;3.95;;;2.42;;
68072;SDS011;54862;51.502;7.446;2023-10-31T07:25:15;4.53;;;2.85;;
68072;SDS011;54862;51.502;7.446;2023-10-31T07:27:41;5.78;;;3.20;;
68072;SDS011;54862;51.502;7.446;2023-10-31T07:30:07;6.68;;;2.47;;
68072;SDS011;54862;51.502;7.446;2023-10-31T07:32:33;5.63;;;2.80;;
68072;SDS011;54862;51.502;7.446;2023-10-31T07:35:01;6.07;;;1.77;;
68072;SDS011;54862;51.502;7.446;2023-10-31T07:37:30;2.92;;;2.33;;
68072;SDS011;54862;51.502;7.446;2023-10-31T07:39:56;4.43;;;2.72;;
68072;SDS011;54862;51.502;7.446;2023-10-31T07:42:22;2.92;;;2.28;;
68072;SDS011;54862;51.502;7.446;2023-10-31T07:44:48;2.45;;;1.83;;
68072;SDS011;54862;51.502;7.446;2023-10-31T07:47:15;3.75;;;2.03;;
68072;SDS011;54862;51.502;7.446;2023-10-31T07:49:41;4.65;;;2.25;;
68072;SDS011;54862;51.502;7.446;2023-10-31T07:52:07;4.28;;;2.28;;
68072;SDS011;54862;51.502;7.446;2023-10-31T07:54:33;3.17;;;1.83;;
68072;SDS011;54862;51.502;7.446;2023-10-31T07:56:59;5.35;;;2.78;;
68072;SDS011;54862;51.502;7.446;2023-10-31T07:59:25;4.43;;;2.35;;
68072;SDS011;54862;51.502;7.446;2023-10-31T08:01:51;2.83;;;1.65;;
68072;SDS011;54862;51.502;7.446;2023-10-31T08:04:17;3.45;;;2.08;;
68072;SDS011;54862;51.502;7.446;2023-10-31T08:06:43;5.05;;;2.45;;
68072;SDS011;54862;51.502;7.446;2023-10-31T08:09:09;2.70;;;2.33;;
68072;SDS011;54862;51.502;7.446;2023-10-31T08:11:35;2.78;;;2.03;;
68072;SDS011;54862;51.502;7.446;2023-10-31T08:14:01;2.78;;;2.00;;
68072;SDS011;54862;51.502;7.446;2023-10-31T08:16:32;2.65;;;1.95;;
68072;SDS011;54862;51.502;7.446;2023-10-31T08:18:58;3.03;;;2.33;;
68072;SDS011;54862;51.502;7.446;2023-10-31T08:21:24;1.67;;;1.52;;
68072;SDS011;54862;51.502;7.446;2023-10-31T08:23:50;4.53;;;2.40;;
68072;SDS011;54862;51.502;7.446;2023-10-31T08:26:16;4.40;;;2.67;;
68072;SDS011;54862;51.502;7.446;2023-10-31T08:28:42;5.60;;;2.63;;
68072;SDS011;54862;51.502;7.446;2023-10-31T08:31:08;3.13;;;2.05;;
68072;SDS011;54862;51.502;7.446;2023-10-31T08:33:36;5.53;;;2.92;;
68072;SDS011;54862;51.502;7.446;2023-10-31T08:36:02;9.68;;;2.42;;
68072;SDS011;54862;51.502;7.446;2023-10-31T08:38:28;3.83;;;2.55;;
68072;SDS011;54862;51.502;7.446;2023-10-31T08:40:55;4.05;;;2.25;;
68072;SDS011;54862;51.502;7.446;2023-10-31T08:43:21;3.38;;;1.95;;
68072;SDS011;54862;51.502;7.446;2023-10-31T08:45:47;4.18;;;2.30;;
68072;SDS011;54862;51.502;7.446;2023-10-31T08:48:13;5.13;;;2.75;;
68072;SDS011;54862;51.502;7.446;2023-10-31T08:50:40;2.10;;;1.98;;
68072;SDS011;54862;51.502;7.446;2023-10-31T08:53:06;4.28;;;2.42;;
68072;SDS011;54862;51.502;7.446;2023-10-31T08:55:32;4.07;;;2.38;;
68072;SDS011;54862;51.502;7.446;2023-10-31T08:57:58;3.70;;;2.45;;
68072;SDS011;54862;51.502;7.446;2023-10-31T09:00:27;4.03;;;2.22;;
68072;SDS011;54862;51.502;7.446;2023-10-31T09:02:53;5.50;;;2.95;;
68072;SDS011;54862;51.502;7.446;2023-10-31T09:05:22;4.47;;;2.25;;
68072;SDS011;54862;51.502;7.446;2023-10-31T09:07:48;4.07;;;1.80;;
68072;SDS011;54862;51.502;7.446;2023-10-31T09:10:17;3.97;;;2.25;;
68072;SDS011;54862;51.502;7.446;2023-10-31T09:12:45;3.95;;;2.88;;
68072;SDS011;54862;51.502;7.446;2023-10-31T09:15:11;7.28;;;2.28;;
68072;SDS011;54862;51.502;7.446;2023-10-31T09:17:38;2.88;;;2.20;;
68072;SDS011;54862;51.502;7.446;2023-10-31T09:20:04;4.40;;;3.20;;
68072;SDS011;54862;51.502;7.446;2023-10-31T09:22:30;3.22;;;2.08;;
68072;SDS011;54862;51.502;7.446;2023-10-31T09:24:58;4.45;;;2.50;;
68072;SDS011;54862;51.502;7.446;2023-10-31T09:27:24;3.85;;;2.28;;
68072;SDS011;54862;51.502;7.446;2023-10-31T09:29:50;1.98;;;1.83;;
68072;SDS011;54862;51.502;7.446;2023-10-31T09:32:17;3.25;;;2.30;;
68072;SDS011;54862;51.502;7.446;2023-10-31T09:34:43;3.70;;;1.98;;
68072;SDS011;54862;51.502;7.446;2023-10-31T09:37:09;8.52;;;2.63;;
68072;SDS011;54862;51.502;7.446;2023-10-31T09:39:35;3.08;;;2.22;;
68072;SDS011;54862;51.502;7.446;2023-10-31T09:42:02;4.25;;;2.30;;
68072;SDS011;54862;51.502;7.446;2023-10-31T09:44:28;7.90;;;2.92;;
68072;SDS011;54862;51.502;7.446;2023-10-31T09:46:56;2.22;;;1.85;;
68072;SDS011;54862;51.502;7.446;2023-10-31T09:49:25;3.03;;;1.92;;
68072;SDS011;54862;51.502;7.446;2023-10-31T09:51:51;3.33;;;2.10;;
68072;SDS011;54862;51.502;7.446;2023-10-31T09:54:17;4.47;;;2.65;;
68072;SDS011;54862;51.502;7.446;2023-10-31T09:56:43;3.63;;;2.53;;
68072;SDS011;54862;51.502;7.446;2023-10-31T09:59:09;4.07;;;2.20;;
68072;SDS011;54862;51.502;7.446;2023-10-31T10:01:35;2.42;;;1.90;;
68072;SDS011;54862;51.502;7.446;2023-10-31T10:04:01;2.53;;;1.95;;
68072;SDS011;54862;51.502;7.446;2023-10-31T10:06:27;2.65;;;2.17;;
68072;SDS011;54862;51.502;7.446;2023-10-31T10:08:55;3.38;;;2.58;;
68072;SDS011;54862;51.502;7.446;2023-10-31T10:11:23;2.72;;;1.65;;
68072;SDS011;54862;51.502;7.446;2023-10-31T10:13:52;3.25;;;2.13;;
68072;SDS011;54862;51.502;7.446;2023-10-31T10:16:29;3.30;;;2.28;;
68072;SDS011;54862;51.502;7.446;2023-10-31T10:19:13;3.55;;;2.30;;
68072;SDS011;54862;51.502;7.446;2023-10-31T10:21:47;3.83;;;2.20;;
68072;SDS011;54862;51.502;7.446;2023-10-31T10:24:14;2.42;;;1.75;;
68072;SDS011;54862;51.502;7.446;2023-10-31T10:26:40;2.92;;;2.45;;
68072;SDS011;54862;51.502;7.446;2023-10-31T10:29:06;4.35;;;2.72;;
68072;SDS011;54862;51.502;7.446;2023-10-31T10:31:34;3.28;;;2.00;;
68072;SDS011;54862;51.502;7.446;2023-10-31T10:34:00;3.67;;;1.95;;
68072;SDS011;54862;51.502;7.446;2023-10-31T10:36:31;3.53;;;2.30;;
68072;SDS011;54862;51.502;7.446;2023-10-31T10:38:58;3.63;;;2.67;;
68072;SDS011;54862;51.502;7.446;2023-10-31T10:41:25;3.90;;;2.30;;
68072;SDS011;54862;51.502;7.446;2023-10-31T10:43:55;2.47;;;1.60;;
68072;SDS011;54862;51.502;7.446;2023-10-31T10:46:23;3.55;;;1.90;;
68072;SDS011;54862;51.502;7.446;2023-10-31T10:48:50;2.42;;;2.03;;
68072;SDS011;54862;51.502;7.446;2023-10-31T10:51:32;3.20;;;2.20;;
68072;SDS011;54862;51.502;7.446;2023-10-31T10:54:20;3.95;;;2.63;;
68072;SDS011;54862;51.502;7.446;2023-10-31T10:56:59;1.63;;;1.52;;
68072;SDS011;54862;51.502;7.446;2023-10-31T10:59:43;3.97;;;2.08;;
68072;SDS011;54862;51.502;7.446;2023-10-31T11:02:15;1.83;;;1.63;;
68072;SDS011;54862;51.502;7.446;2023-10-31T11:04:43;6.20;;;2.25;;
68072;SDS011;54862;51.502;7.446;2023-10-31T11:07:11;3.63;;;1.95;;
68072;SDS011;54862;51.502;7.446;2023-10-31T11:09:37;1.92;;;1.60;;
68072;SDS011;54862;51.502;7.446;2023-10-31T11:12:05;3.45;;;2.55;;
68072;SDS011;54862;51.502;7.446;2023-10-31T11:14:34;3.30;;;2.10;;
68072;SDS011;54862;51.502;7.446;2023-10-31T11:17:01;3.42;;;1.95;;
68072;SDS011;54862;51.502;7.446;2023-10-31T11:19:29;6.38;;;2.95;;
68072;SDS011;54862;51.502;7.446;2023-10-31T11:21:57;3.65;;;2.03;;
68072;SDS011;54862;51.502;7.446;2023-10-31T11:24:25;3.85;;;2.22;;
68072;SDS011;54862;51.502;7.446;2023-10-31T11:26:53;3.58;;;2.55;;
68072;SDS011;54862;51.502;7.446;2023-10-31T11:29:21;3.67;;;2.40;;
68072;SDS011;54862;51.502;7.446;2023-10-31T11:31:47;2.35;;;2.03;;
68072;SDS011;54862;51.502;7.446;2023-10-31T11:34:16;4.03;;;2.00;;
68072;SDS011;54862;51.502;7.446;2023-10-31T11:36:44;2.55;;;1.90;;
68072;SDS011;54862;51.502;7.446;2023-10-31T11:39:12;6.18;;;2.33;;
68072;SDS011;54862;51.502;7.446;2023-10-31T11:41:38;2.70;;;1.95;;
68072;SDS011;54862;51.502;7.446;2023-10-31T11:44:09;3.20;;;2.10;;
68072;SDS011;54862;51.502;7.446;2023-10-31T11:46:35;3.55;;;2.20;;
68072;SDS011;54862;51.502;7.446;2023-10-31T11:49:01;1.83;;;1.65;;
68072;SDS011;54862;51.502;7.446;2023-10-31T11:51:31;1.95;;;1.80;;
68072;SDS011;54862;51.502;7.446;2023-10-31T11:54:00;3.20;;;1.88;;
68072;SDS011;54862;51.502;7.446;2023-10-31T11:56:27;2.47;;;1.73;;
68072;SDS011;54862;51.502;7.446;2023-10-31T11:58:56;2.58;;;1.90;;
68072;SDS011;54862;51.502;7.446;2023-10-31T12:01:22;3.28;;;1.77;;
68072;SDS011;54862;51.502;7.446;2023-10-31T12:03:48;3.42;;;1.80;;
68072;SDS011;54862;51.502;7.446;2023-10-31T12:06:15;3.30;;;1.90;;
68072;SDS011;54862;51.502;7.446;2023-10-31T12:08:43;1.77;;;1.65;;
68072;SDS011;54862;51.502;7.446;2023-10-31T12:13:41;2.17;;;1.83;;
68072;SDS011;54862;51.502;7.446;2023-10-31T12:16:09;1.67;;;1.58;;
68072;SDS011;54862;51.502;7.446;2023-10-31T12:18:38;2.10;;;1.67;;
68072;SDS011;54862;51.502;7.446;2023-10-31T12:21:07;2.58;;;1.70;;
68072;SDS011;54862;51.502;7.446;2023-10-31T12:23:33;3.28;;;2.10;;
68072;SDS011;54862;51.502;7.446;2023-10-31T12:26:00;2.05;;;1.60;;
68072;SDS011;54862;51.502;7.446;2023-10-31T12:28:26;1.63;;;1.50;;
68072;SDS011;54862;51.502;7.446;2023-10-31T12:30:53;1.38;;;1.25;;
68072;SDS011;54862;51.502;7.446;2023-10-31T12:33:22;1.50;;;1.40;;
68072;SDS011;54862;51.502;7.446;2023-10-31T12:35:50;4.07;;;1.58;;
68072;SDS011;54862;51.502;7.446;2023-10-31T12:38:16;2.65;;;1.98;;
68072;SDS011;54862;51.502;7.446;2023-10-31T12:40:43;3.35;;;1.60;;
68072;SDS011;54862;51.502;7.446;2023-10-31T12:43:09;1.92;;;1.25;;
68072;SDS011;54862;51.502;7.446;2023-10-31T12:45:35;1.23;;;1.15;;
68072;SDS011;54862;51.502;7.446;2023-10-31T12:48:07;2.92;;;1.25;;
68072;SDS011;54862;51.502;7.446;2023-10-31T12:50:34;1.40;;;1.25;;
68072;SDS011;54862;51.502;7.446;2023-10-31T12:53:05;1.85;;;1.33;;
68072;SDS011;54862;51.502;7.446;2023-10-31T12:55:37;1.23;;;1.23;;
68072;SDS011;54862;51.502;7.446;2023-10-31T12:58:03;10.38;;;1.55;;
68072;SDS011;54862;51.502;7.446;2023-10-31T13:00:31;1.52;;;1.38;;
68072;SDS011;54862;51.502;7.446;2023-10-31T13:03:01;1.20;;;1.20;;
68072;SDS011;54862;51.502;7.446;2023-10-31T13:05:29;1.30;;;1.20;;
68072;SDS011;54862;51.502;7.446;2023-10-31T13:07:58;1.33;;;1.25;;
68072;SDS011;54862;51.502;7.446;2023-10-31T13:10:26;4.13;;;1.50;;
68072;SDS011;54862;51.502;7.446;2023-10-31T13:12:52;4.40;;;1.30;;
68072;SDS011;54862;51.502;7.446;2023-10-31T13:15:19;1.30;;;1.23;;
68072;SDS011;54862;51.502;7.446;2023-10-31T13:17:45;5.75;;;1.40;;
68072;SDS011;54862;51.502;7.446;2023-10-31T13:20:11;1.38;;;1.27;;
68072;SDS011;54862;51.502;7.446;2023-10-31T13:22:38;3.15;;;1.75;;
68072;SDS011;54862;51.502;7.446;2023-10-31T13:25:07;1.10;;;1.10;;
68072;SDS011;54862;51.502;7.446;2023-10-31T13:27:35;1.17;;;1.15;;
68072;SDS011;54862;51.502;7.446;2023-10-31T13:30:01;1.20;;;1.10;;
68072;SDS011;54862;51.502;7.446;2023-10-31T13:32:28;1.33;;;1.15;;
68072;SDS011;54862;51.502;7.446;2023-10-31T13:34:54;5.63;;;1.80;;
68072;SDS011;54862;51.502;7.446;2023-10-31T13:37:22;3.55;;;1.38;;
68072;SDS011;54862;51.502;7.446;2023-10-31T13:39:51;1.80;;;1.35;;
68072;SDS011;54862;51.502;7.446;2023-10-31T13:42:19;1.33;;;1.23;;
68072;SDS011;54862;51.502;7.446;2023-10-31T13:44:45;1.00;;;1.00;;
68072;SDS011;54862;51.502;7.446;2023-10-31T13:47:12;1.50;;;1.40;;
68072;SDS011;54862;51.502;7.446;2023-10-31T13:49:38;2.80;;;1.20;;
68072;SDS011;54862;51.502;7.446;2023-10-31T13:52:06;4.85;;;1.63;;
68072;SDS011;54862;51.502;7.446;2023-10-31T13:54:33;1.20;;;1.10;;
68072;SDS011;54862;51.502;7.446;2023-10-31T13:57:01;1.30;;;1.20;;
68072;SDS011;54862;51.502;7.446;2023-10-31T13:59:28;1.35;;;1.27;;
68072;SDS011;54862;51.502;7.446;2023-10-31T14:01:57;1.35;;;1.30;;
68072;SDS011;54862;51.502;7.446;2023-10-31T14:04:23;1.70;;;1.30;;
68072;SDS011;54862;51.502;7.446;2023-10-31T14:06:51;1.33;;;1.20;;
68072;SDS011;54862;51.502;7.446;2023-10-31T14:09:17;5.20;;;1.40;;
68072;SDS011;54862;51.502;7.446;2023-10-31T14:11:46;1.20;;;1.10;;
68072;SDS011;54862;51.502;7.446;2023-10-31T14:14:14;1.08;;;1.08;;
68072;SDS011;54862;51.502;7.446;2023-10-31T14:16:40;1.40;;;1.30;;
68072;SDS011;54862;51.502;7.446;2023-10-31T14:19:06;1.25;;;1.25;;
68072;SDS011;54862;51.502;7.446;2023-10-31T14:21:35;1.40;;;1.30;;
68072;SDS011;54862;51.502;7.446;2023-10-31T14:24:01;1.15;;;1.08;;
68072;SDS011;54862;51.502;7.446;2023-10-31T14:26:28;1.67;;;1.50;;
68072;SDS011;54862;51.502;7.446;2023-10-31T14:28:54;2.40;;;1.60;;
68072;SDS011;54862;51.502;7.446;2023-10-31T14:31:20;5.00;;;1.52;;
68072;SDS011;54862;51.502;7.446;2023-10-31T14:33:46;3.35;;;1.40;;
68072;SDS011;54862;51.502;7.446;2023-10-31T14:36:14;1.15;;;1.15;;
68072;SDS011;54862;51.502;7.446;2023-10-31T14:38:40;1.77;;;1.48;;
68072;SDS011;54862;51.502;7.446;2023-10-31T14:41:07;3.38;;;1.80;;
68072;SDS011;54862;51.502;7.446;2023-10-31T14:43:33;3.38;;;1.77;;
68072;SDS011;54862;51.502;7.446;2023-10-31T14:46:00;1.35;;;1.20;;
68072;SDS011;54862;51.502;7.446;2023-10-31T14:48:28;2.70;;;1.25;;
68072;SDS011;54862;51.502;7.446;2023-10-31T14:50:59;1.25;;;1.25;;